createdAt,value
2019-01-19T00:01:41.294Z,-2.40
2019-01-19T00:04:57.326Z,-2.50
2019-01-19T00:07:42.740Z,-2.60
2019-01-19T00:10:59.753Z,-2.60
2019-01-19T00:14:00.218Z,-2.60
2019-01-19T00:17:13.089Z,-2.60
2019-01-19T00:20:39.634Z,-2.60
2019-01-19T00:23:40.888Z,-2.60
2019-01-19T00:27:04.066Z,-2.70
2019-01-19T00:30:09.110Z,-2.70
2019-01-19T00:32:48.446Z,-2.70
2019-01-19T00:36:11.947Z,-2.80
2019-01-19T00:39:09.564Z,-2.80
2019-01-19T00:42:20.022Z,-2.80
2019-01-19T00:45:23.337Z,-2.90
2019-01-19T00:48:30.468Z,-2.80
2019-01-19T00:51:46.338Z,-2.80
2019-01-19T00:54:53.353Z,-2.80
2019-01-19T00:58:16.823Z,-2.70
2019-01-19T01:01:15.732Z,-2.70
2019-01-19T01:04:27.483Z,-2.80
2019-01-19T01:07:33.137Z,-2.80
2019-01-19T01:10:23.558Z,-2.80
2019-01-19T01:13:18.094Z,-2.80
2019-01-19T01:15:59.193Z,-2.80
2019-01-19T01:18:52.664Z,-2.80
2019-01-19T01:22:12.331Z,-2.80
2019-01-19T01:25:00.256Z,-2.80
2019-01-19T01:28:06.310Z,-2.90
2019-01-19T01:30:55.249Z,-2.90
2019-01-19T01:34:02.179Z,-2.90
2019-01-19T01:37:31.203Z,-2.90
2019-01-19T01:40:38.762Z,-2.90
2019-01-19T01:43:33.114Z,-2.90
2019-01-19T01:46:38.837Z,-2.90
2019-01-19T01:49:25.471Z,-2.90
2019-01-19T01:52:44.794Z,-2.90
2019-01-19T01:55:22.430Z,-2.90
2019-01-19T01:58:01.617Z,-3.00
2019-01-19T02:00:58.624Z,-3.00
2019-01-19T02:04:03.624Z,-3.00
2019-01-19T02:07:06.374Z,-3.00
2019-01-19T02:10:17.610Z,-3.00
2019-01-19T02:13:24.435Z,-2.90
2019-01-19T02:16:31.105Z,-3.10
2019-01-19T02:19:11.503Z,-3.10
2019-01-19T02:22:19.605Z,-3.10
2019-01-19T02:25:30.342Z,-3.10
2019-01-19T02:28:42.241Z,-3.10
2019-01-19T02:31:48.350Z,-3.20
2019-01-19T02:35:11.620Z,-3.20
2019-01-19T02:37:56.038Z,-3.20
2019-01-19T02:40:57.086Z,-3.20
2019-01-19T02:44:17.052Z,-3.10
2019-01-19T02:47:20.686Z,-3.10
2019-01-19T02:50:21.357Z,-3.00
2019-01-19T02:53:32.609Z,-2.90
2019-01-19T02:56:11.756Z,-2.80
2019-01-19T02:59:13.474Z,-2.80
2019-01-19T03:02:24.900Z,-2.80
2019-01-19T03:05:19.981Z,-2.80
2019-01-19T03:08:23.870Z,-2.80
2019-01-19T03:11:35.092Z,-2.80
2019-01-19T03:14:44.517Z,-2.90
2019-01-19T03:17:59.421Z,-2.90
2019-01-19T03:21:15.774Z,-2.90
2019-01-19T03:24:28.684Z,-3.00
2019-01-19T03:27:43.190Z,-3.00
2019-01-19T03:30:56.643Z,-3.00
2019-01-19T03:34:08.701Z,-3.00
2019-01-19T03:37:35.343Z,-3.10
2019-01-19T03:40:49.716Z,-3.00
2019-01-19T03:44:02.392Z,-2.90
2019-01-19T03:47:05.403Z,-2.80
2019-01-19T03:50:04.688Z,-2.80
2019-01-19T03:53:17.859Z,-2.70
2019-01-19T03:56:26.950Z,-2.60
2019-01-19T03:59:19.458Z,-2.60
2019-01-19T04:02:11.158Z,-2.50
2019-01-19T04:05:05.226Z,-2.50
2019-01-19T04:07:46.749Z,-2.50
2019-01-19T04:11:07.132Z,-2.40
2019-01-19T04:14:30.779Z,-2.40
2019-01-19T04:17:47.079Z,-2.40
2019-01-19T04:21:10.113Z,-2.30
2019-01-19T04:23:43.247Z,-2.30
2019-01-19T04:26:19.250Z,-2.20
2019-01-19T04:28:49.740Z,-2.20
2019-01-19T04:31:19.856Z,-2.10
2019-01-19T04:33:50.156Z,-2.10
2019-01-19T04:36:21.759Z,-2.00
2019-01-19T04:38:52.558Z,-2.00
2019-01-19T04:41:22.797Z,-2.00
2019-01-19T04:43:53.034Z,-2.00
2019-01-19T04:46:23.100Z,-2.00
2019-01-19T04:48:54.047Z,-2.00
2019-01-19T04:51:24.199Z,-1.90
2019-01-19T04:53:54.688Z,-1.90
2019-01-19T04:56:24.759Z,-1.90
2019-01-19T04:58:54.842Z,-1.90
2019-01-19T05:01:24.943Z,-1.80
2019-01-19T05:03:55.226Z,-1.80
2019-01-19T05:06:30.238Z,-1.80
2019-01-19T05:08:57.233Z,-1.80
2019-01-19T05:11:27.419Z,-1.80
2019-01-19T05:13:57.681Z,-1.80
2019-01-19T05:16:27.897Z,-1.70
2019-01-19T05:18:58.054Z,-1.70
2019-01-19T05:21:28.511Z,-1.70
2019-01-19T05:23:58.657Z,-1.70
2019-01-19T05:26:28.878Z,-1.70
2019-01-19T05:28:58.966Z,-1.60
2019-01-19T05:31:29.126Z,-1.60
2019-01-19T05:33:59.350Z,-1.60
2019-01-19T05:36:29.643Z,-1.60
2019-01-19T05:39:00.681Z,-1.60
2019-01-19T05:41:47.141Z,-1.60
2019-01-19T05:44:17.574Z,-1.60
2019-01-19T05:46:47.689Z,-1.50
2019-01-19T05:49:17.785Z,-1.50
2019-01-19T05:51:48.029Z,-1.50
2019-01-19T05:54:18.107Z,-1.50
2019-01-19T05:56:48.343Z,-1.50
2019-01-19T05:59:18.522Z,-1.50
2019-01-19T06:01:48.758Z,-1.50
2019-01-19T06:04:18.962Z,-1.50
2019-01-19T06:06:49.138Z,-1.50
2019-01-19T06:09:19.338Z,-1.40
2019-01-19T06:11:49.466Z,-1.40
2019-01-19T06:14:19.574Z,-1.40
2019-01-19T06:16:49.725Z,-1.40
2019-01-19T06:19:20.242Z,-1.40
2019-01-19T06:21:59.034Z,-1.40
2019-01-19T06:24:29.401Z,-1.40
2019-01-19T06:26:59.637Z,-1.40
2019-01-19T06:29:30.036Z,-1.40
2019-01-19T06:32:00.186Z,-1.40
2019-01-19T06:34:30.417Z,-1.40
2019-01-19T06:37:00.822Z,-1.40
2019-01-19T06:39:30.938Z,-1.30
2019-01-19T06:42:01.138Z,-1.30
2019-01-19T06:44:31.382Z,-1.30
2019-01-19T06:47:01.666Z,-1.30
2019-01-19T06:49:31.829Z,-1.30
2019-01-19T06:52:02.007Z,-1.30
2019-01-19T06:54:32.529Z,-1.30
2019-01-19T06:57:02.898Z,-1.30
2019-01-19T06:59:33.101Z,-1.30
2019-01-19T07:02:03.293Z,-1.20
2019-01-19T07:04:33.671Z,-1.20
2019-01-19T07:07:03.835Z,-1.20
2019-01-19T07:09:33.914Z,-1.20
2019-01-19T07:12:04.264Z,-1.10
2019-01-19T07:14:34.405Z,-1.10
2019-01-19T07:17:04.525Z,-1.10
2019-01-19T07:19:34.657Z,-1.10
2019-01-19T07:22:04.881Z,-1.10
2019-01-19T07:24:35.181Z,-1.10
2019-01-19T07:27:06.319Z,-1.10
2019-01-19T07:29:36.517Z,-1.10
2019-01-19T07:32:06.727Z,-1.10
2019-01-19T07:34:36.962Z,-1.10
2019-01-19T07:37:09.920Z,-1.00
2019-01-19T07:39:38.970Z,-1.00
2019-01-19T07:42:09.183Z,-1.00
2019-01-19T07:44:39.359Z,-0.90
2019-01-19T07:47:10.082Z,-0.90
2019-01-19T07:49:40.555Z,-0.90
2019-01-19T07:52:10.994Z,-0.90
2019-01-19T07:54:41.145Z,-0.80
2019-01-19T07:57:11.421Z,-0.80
2019-01-19T07:59:41.547Z,-0.80
2019-01-19T08:02:11.697Z,-0.80
2019-01-19T08:04:41.926Z,-0.70
2019-01-19T08:07:17.267Z,-0.70
2019-01-19T08:09:43.998Z,-0.60
2019-01-19T08:12:14.265Z,-0.60
2019-01-19T08:14:44.406Z,-0.50
2019-01-19T08:17:14.578Z,-0.50
2019-01-19T08:19:44.753Z,-0.50
2019-01-19T08:22:14.982Z,-0.40
2019-01-19T08:24:45.134Z,-0.40
2019-01-19T08:27:15.290Z,-0.30
2019-01-19T08:29:45.423Z,-0.30
2019-01-19T08:32:15.601Z,-0.10
2019-01-19T08:34:46.670Z,-0.10
2019-01-19T08:37:16.870Z,-0.10
2019-01-19T08:39:47.199Z,-0.10
2019-01-19T08:42:17.442Z,0.00
2019-01-19T08:44:47.650Z,0.00
2019-01-19T08:47:17.823Z,0.00
2019-01-19T08:49:48.348Z,0.00
2019-01-19T08:52:18.684Z,0.10
2019-01-19T08:54:48.929Z,0.10
2019-01-19T08:57:19.075Z,0.10
2019-01-19T08:59:52.202Z,0.10
2019-01-19T09:02:22.768Z,0.20
2019-01-19T09:04:52.958Z,0.20
2019-01-19T09:07:23.244Z,0.20
2019-01-19T09:09:53.502Z,0.30
2019-01-19T09:12:23.671Z,0.30
2019-01-19T09:14:53.842Z,0.40
2019-01-19T09:17:24.122Z,0.40
2019-01-19T09:19:54.328Z,0.50
2019-01-19T09:22:24.514Z,0.50
2019-01-19T09:24:54.697Z,0.50
2019-01-19T09:27:25.798Z,0.50
2019-01-19T09:29:55.950Z,0.60
2019-01-19T09:32:26.393Z,0.60
2019-01-19T09:34:56.645Z,0.60
2019-01-19T09:37:26.776Z,0.60
2019-01-19T09:39:56.918Z,0.60
2019-01-19T09:42:27.306Z,0.60
2019-01-19T09:44:57.516Z,0.80
2019-01-19T09:47:27.671Z,1.10
2019-01-19T09:49:57.947Z,1.20
2019-01-19T09:52:28.196Z,1.00
2019-01-19T09:54:58.458Z,0.90
2019-01-19T09:57:28.577Z,0.80
2019-01-19T09:59:58.861Z,0.80
2019-01-19T10:02:29.077Z,0.80
2019-01-19T10:04:59.222Z,0.70
2019-01-19T10:07:29.449Z,0.70
2019-01-19T10:09:59.622Z,0.70
2019-01-19T10:12:29.849Z,0.80
2019-01-19T10:15:00.162Z,0.80
2019-01-19T10:17:30.336Z,0.90
2019-01-19T10:20:00.554Z,0.90
2019-01-19T10:22:30.841Z,1.00
2019-01-19T10:25:00.957Z,1.00
2019-01-19T10:27:37.289Z,1.00
2019-01-19T10:30:03.209Z,1.00
2019-01-19T10:32:33.583Z,0.80
2019-01-19T10:35:04.463Z,0.80
2019-01-19T10:37:34.553Z,0.80
2019-01-19T10:40:20.762Z,0.70
2019-01-19T10:42:43.151Z,0.70
2019-01-19T10:45:15.914Z,0.70
2019-01-19T10:47:46.234Z,0.80
2019-01-19T10:50:17.500Z,1.00
2019-01-19T10:52:50.299Z,1.30
2019-01-19T10:55:20.905Z,1.60
2019-01-19T10:57:51.277Z,1.90
2019-01-19T11:00:26.605Z,2.10
2019-01-19T11:02:57.553Z,2.30
2019-01-19T11:05:28.402Z,2.40
2019-01-19T11:08:03.595Z,2.50
2019-01-19T11:10:32.717Z,2.30
2019-01-19T11:13:03.093Z,2.30
2019-01-19T11:15:35.170Z,2.00
2019-01-19T11:18:05.357Z,1.90
2019-01-19T11:20:35.657Z,1.70
2019-01-19T11:23:08.172Z,1.80
2019-01-19T11:25:38.374Z,1.70
2019-01-19T11:28:08.665Z,1.70
2019-01-19T11:30:38.844Z,1.60
2019-01-19T11:33:09.005Z,1.60
2019-01-19T11:35:39.134Z,1.60
2019-01-19T11:38:19.917Z,1.60
2019-01-19T11:41:04.158Z,1.60
2019-01-19T11:43:34.362Z,1.70
2019-01-19T11:46:04.540Z,1.60
2019-01-19T11:48:34.786Z,1.70
2019-01-19T11:51:07.378Z,1.80
2019-01-19T11:53:40.469Z,1.80
2019-01-19T11:56:12.283Z,1.90
2019-01-19T11:58:42.582Z,2.00
2019-01-19T12:01:16.024Z,2.20
2019-01-19T12:03:46.298Z,2.30
2019-01-19T12:06:16.378Z,2.30
2019-01-19T12:08:46.558Z,2.30
2019-01-19T12:11:16.869Z,2.10
2019-01-19T12:13:47.015Z,1.90
2019-01-19T12:16:17.150Z,1.70
2019-01-19T12:18:47.302Z,1.60
2019-01-19T12:21:17.556Z,1.40
2019-01-19T12:23:47.754Z,1.40
2019-01-19T12:26:17.841Z,1.40
2019-01-19T12:28:48.062Z,1.40
2019-01-19T12:31:18.414Z,1.30
2019-01-19T12:33:48.614Z,1.20
2019-01-19T12:36:18.762Z,1.20
2019-01-19T12:38:48.920Z,1.20
2019-01-19T12:41:19.041Z,1.20
2019-01-19T12:43:49.271Z,1.10
2019-01-19T12:46:19.326Z,1.10
2019-01-19T12:48:49.488Z,1.20
2019-01-19T12:51:19.681Z,1.20
2019-01-19T12:53:49.855Z,1.20
2019-01-19T12:56:19.986Z,1.20
2019-01-19T12:58:50.201Z,1.20
2019-01-19T13:01:20.397Z,1.10
2019-01-19T13:03:50.643Z,1.20
2019-01-19T13:06:34.960Z,1.20
2019-01-19T13:09:12.567Z,1.20
2019-01-19T13:12:11.103Z,1.10
2019-01-19T13:14:47.934Z,1.10
2019-01-19T13:18:04.946Z,1.00
2019-01-19T13:21:08.417Z,1.00
2019-01-19T13:24:15.827Z,1.00
2019-01-19T13:27:13.699Z,1.00
2019-01-19T13:30:40.222Z,0.90
2019-01-19T13:33:54.156Z,0.80
2019-01-19T13:37:02.285Z,0.80
2019-01-19T13:39:47.633Z,0.80
2019-01-19T13:42:52.586Z,0.80
2019-01-19T13:45:35.978Z,0.70
2019-01-19T13:48:49.121Z,0.60
2019-01-19T13:51:47.007Z,0.60
2019-01-19T13:54:55.962Z,0.60
2019-01-19T13:58:25.422Z,0.70
2019-01-19T14:01:38.043Z,0.70
2019-01-19T14:04:43.701Z,0.70
2019-01-19T14:07:45.809Z,0.70
2019-01-19T14:10:46.994Z,0.60
2019-01-19T14:13:47.377Z,0.60
2019-01-19T14:17:06.311Z,0.60
2019-01-19T14:20:13.114Z,0.50
2019-01-19T14:23:28.522Z,0.50
2019-01-19T14:26:55.438Z,0.40
2019-01-19T14:29:56.884Z,0.40
2019-01-19T14:32:59.545Z,0.30
2019-01-19T14:35:46.627Z,0.20
2019-01-19T14:38:59.650Z,0.20
2019-01-19T14:42:04.741Z,0.20
2019-01-19T14:45:13.912Z,0.10
2019-01-19T14:48:15.974Z,0.10
2019-01-19T14:51:42.253Z,0.10
2019-01-19T14:54:45.602Z,0.10
2019-01-19T14:57:30.231Z,0.20
2019-01-19T15:00:21.395Z,0.20
2019-01-19T15:03:32.314Z,0.20
2019-01-19T15:06:47.474Z,0.20
2019-01-19T15:09:54.874Z,0.10
2019-01-19T15:12:58.699Z,0.10
2019-01-19T15:15:51.010Z,0.10
2019-01-19T15:18:58.618Z,0.10
2019-01-19T15:22:00.582Z,0.10
2019-01-19T15:25:00.255Z,0.10
2019-01-19T15:27:56.770Z,0.00
2019-01-19T15:30:45.681Z,0.00
2019-01-19T15:33:51.763Z,-0.10
2019-01-19T15:37:15.418Z,-0.10
2019-01-19T15:40:18.095Z,-0.20
2019-01-19T15:43:14.068Z,-0.30
2019-01-19T15:46:26.483Z,-0.30
2019-01-19T15:49:19.512Z,-0.40
2019-01-19T15:52:16.042Z,-0.30
2019-01-19T15:55:31.126Z,-0.30
2019-01-19T16:02:09.353Z,-0.20
2019-01-19T16:05:14.915Z,-0.30
2019-01-19T16:08:24.727Z,-0.30
2019-01-19T16:11:08.276Z,-0.30
2019-01-19T16:14:21.401Z,-0.30
2019-01-19T16:17:30.346Z,-0.30
2019-01-19T16:20:31.110Z,-0.30
2019-01-19T16:23:32.454Z,-0.30
2019-01-19T16:27:10.921Z,-0.30
2019-01-19T16:29:57.146Z,-0.40
2019-01-19T16:33:17.606Z,-0.40
2019-01-19T16:36:14.162Z,-0.40
2019-01-19T16:39:55.832Z,-0.30
2019-01-19T16:43:11.979Z,-0.40
2019-01-19T16:46:06.628Z,-0.40
2019-01-19T16:49:13.457Z,-0.40
2019-01-19T16:52:37.666Z,-0.40
2019-01-19T16:55:36.246Z,-0.40
2019-01-19T16:58:46.579Z,-0.40
2019-01-19T17:02:01.149Z,-0.40
2019-01-19T17:04:58.747Z,-0.40
2019-01-19T17:07:54.815Z,-0.50
2019-01-19T17:11:21.695Z,-0.50
2019-01-19T17:13:55.808Z,-0.40
2019-01-19T17:16:55.545Z,-0.50
2019-01-19T17:19:46.403Z,-0.50
2019-01-19T17:22:59.033Z,-0.50
2019-01-19T17:26:05.435Z,-0.50
2019-01-19T17:28:57.078Z,-0.50
2019-01-19T17:31:41.693Z,-0.50
2019-01-19T17:34:44.780Z,-0.60
2019-01-19T17:37:55.089Z,-0.70
2019-01-19T17:41:02.116Z,-0.70
2019-01-19T17:43:41.586Z,-0.80
2019-01-19T17:46:56.774Z,-0.90
2019-01-19T17:50:15.414Z,-1.00
2019-01-19T17:53:00.019Z,-1.10
2019-01-19T17:56:00.095Z,-1.20
2019-01-19T17:59:32.275Z,-1.30
2019-01-19T18:02:44.325Z,-1.30
2019-01-19T18:05:39.738Z,-1.40
2019-01-19T18:09:15.305Z,-1.40
2019-01-19T18:16:19.139Z,-1.50
2019-01-19T18:19:37.619Z,-1.60
2019-01-19T18:22:48.475Z,-1.60
2019-01-19T18:25:55.784Z,-1.70
2019-01-19T18:29:11.718Z,-1.80
2019-01-19T18:32:13.153Z,-1.90
2019-01-19T18:34:59.793Z,-1.90
2019-01-19T18:37:47.001Z,-2.00
2019-01-19T18:41:10.783Z,-2.10
2019-01-19T18:44:18.742Z,-2.10
2019-01-19T18:47:13.674Z,-2.20
2019-01-19T18:50:23.777Z,-2.20
2019-01-19T18:53:26.289Z,-2.30
2019-01-19T18:56:29.857Z,-2.40
2019-01-19T18:59:31.086Z,-2.40
2019-01-19T19:02:30.475Z,-2.50
2019-01-19T19:05:31.077Z,-2.50
2019-01-19T19:08:39.370Z,-2.60
2019-01-19T19:11:58.014Z,-2.60
2019-01-19T19:15:07.516Z,-2.70
2019-01-19T19:18:18.469Z,-2.70
2019-01-19T19:21:19.436Z,-2.70
2019-01-19T19:24:40.135Z,-2.80
2019-01-19T19:28:03.229Z,-2.80
2019-01-19T19:31:22.248Z,-2.90
2019-01-19T19:34:51.487Z,-2.90
2019-01-19T19:37:38.172Z,-3.00
2019-01-19T19:40:51.302Z,-3.00
2019-01-19T19:43:46.959Z,-3.10
2019-01-19T19:46:54.001Z,-3.10
2019-01-19T19:49:55.400Z,-3.10
2019-01-19T19:52:28.000Z,-3.10
2019-01-19T19:54:57.505Z,-3.10
2019-01-19T19:57:27.771Z,-3.20
2019-01-19T19:59:57.981Z,-3.20
2019-01-19T20:02:28.640Z,-3.30
2019-01-19T20:04:58.911Z,-3.30
2019-01-19T20:07:29.514Z,-3.30
2019-01-19T20:09:59.633Z,-3.30
2019-01-19T20:12:29.991Z,-3.30
2019-01-19T20:15:00.244Z,-3.30
2019-01-19T20:17:30.576Z,-3.30
2019-01-19T20:20:00.859Z,-3.40
2019-01-19T20:22:31.206Z,-3.40
2019-01-19T20:25:01.399Z,-3.40
2019-01-19T20:27:31.931Z,-3.40
2019-01-19T20:30:02.236Z,-3.40
2019-01-19T20:32:33.983Z,-3.40
2019-01-19T20:35:04.738Z,-3.40
2019-01-19T20:37:34.938Z,-3.40
2019-01-19T20:40:06.086Z,-3.50
2019-01-19T20:42:36.585Z,-3.50
2019-01-19T20:45:08.440Z,-3.50
2019-01-19T20:47:38.821Z,-3.50
2019-01-19T20:50:09.618Z,-3.50
2019-01-19T20:52:39.870Z,-3.50
2019-01-19T20:55:10.242Z,-3.60
2019-01-19T20:57:40.314Z,-3.60
2019-01-19T21:00:15.217Z,-3.70
2019-01-19T21:02:45.539Z,-3.70
2019-01-19T21:05:15.884Z,-3.70
2019-01-19T21:07:46.234Z,-3.70
2019-01-19T21:10:16.454Z,-3.80
2019-01-19T21:12:46.890Z,-3.80
2019-01-19T21:15:17.214Z,-3.80
2019-01-19T21:17:55.602Z,-3.80
2019-01-19T21:20:20.858Z,-3.90
2019-01-19T21:22:51.057Z,-3.90
2019-01-19T21:25:21.225Z,-3.90
2019-01-19T21:27:51.286Z,-3.90
2019-01-19T21:30:24.867Z,-3.90
2019-01-19T21:32:56.713Z,-4.00
2019-01-19T21:35:27.927Z,-4.00
2019-01-19T21:38:01.107Z,-4.00
2019-01-19T21:40:39.196Z,-4.10
2019-01-19T21:43:14.930Z,-4.10
2019-01-19T21:45:45.427Z,-4.10
2019-01-19T21:48:20.436Z,-4.10
2019-01-19T21:50:52.875Z,-4.10
2019-01-19T21:53:29.987Z,-4.10
2019-01-19T21:56:02.989Z,-4.10
2019-01-19T21:58:37.934Z,-4.10
2019-01-19T22:01:08.141Z,-4.20
2019-01-19T22:03:39.422Z,-4.20
2019-01-19T22:06:13.147Z,-4.20
2019-01-19T22:08:47.894Z,-4.20
2019-01-19T22:11:18.154Z,-4.20
2019-01-19T22:13:48.313Z,-4.30
2019-01-19T22:16:23.906Z,-4.30
2019-01-19T22:18:57.642Z,-4.30
2019-01-19T22:21:27.742Z,-4.30
2019-01-19T22:23:57.904Z,-4.30
2019-01-19T22:26:28.489Z,-4.30
2019-01-19T22:29:04.040Z,-4.30
2019-01-19T22:31:34.355Z,-4.30
2019-01-19T22:34:08.298Z,-4.30
2019-01-19T22:36:40.213Z,-4.30
2019-01-19T22:39:11.832Z,-4.40
2019-01-19T22:41:42.102Z,-4.40
2019-01-19T22:44:13.217Z,-4.50
2019-01-19T22:46:43.517Z,-4.50
2019-01-19T22:49:14.518Z,-4.50
2019-01-19T22:51:50.531Z,-4.50
2019-01-19T22:54:23.675Z,-4.60
2019-01-19T22:56:53.988Z,-4.60
2019-01-19T22:59:24.225Z,-4.70
2019-01-19T23:02:12.876Z,-4.70
2019-01-19T23:04:48.320Z,-4.70
2019-01-19T23:07:22.454Z,-4.70
2019-01-19T23:09:54.536Z,-4.70
2019-01-19T23:12:25.162Z,-4.70
2019-01-19T23:14:55.354Z,-4.70
2019-01-19T23:17:27.063Z,-4.70
2019-01-19T23:19:59.086Z,-4.70
2019-01-19T23:22:29.537Z,-4.70
2019-01-19T23:25:00.190Z,-4.70
2019-01-19T23:27:32.002Z,-4.80
2019-01-19T23:30:02.475Z,-4.80
2019-01-19T23:32:32.678Z,-4.80
2019-01-19T23:35:02.854Z,-4.80
2019-01-19T23:37:34.298Z,-4.80
2019-01-19T23:40:05.399Z,-4.80
2019-01-19T23:42:35.707Z,-4.80
2019-01-19T23:45:06.301Z,-4.90
2019-01-19T23:47:36.488Z,-4.90
2019-01-19T23:50:07.182Z,-4.90
2019-01-19T23:52:37.553Z,-4.90
2019-01-19T23:55:07.977Z,-5.00
2019-01-19T23:57:38.146Z,-5.00
